createdAt,value
2017-10-24T00:00:11.292Z,12.37
2017-10-24T00:02:38.728Z,11.13
2017-10-24T00:05:06.172Z,11.77
2017-10-24T00:07:33.615Z,12.07
2017-10-24T00:10:01.037Z,11.63
2017-10-24T00:12:29.230Z,11.37
2017-10-24T00:14:56.655Z,12.43
2017-10-24T00:17:24.856Z,11.00
2017-10-24T00:19:52.284Z,12.30
2017-10-24T00:22:20.488Z,11.87
2017-10-24T00:24:47.916Z,13.10
2017-10-24T00:27:16.116Z,11.10
2017-10-24T00:29:43.547Z,13.40
2017-10-24T00:32:10.981Z,12.80
2017-10-24T00:34:38.413Z,13.57
2017-10-24T00:37:09.804Z,11.67
2017-10-24T00:39:37.236Z,12.87
2017-10-24T00:42:04.672Z,12.90
2017-10-24T00:44:32.103Z,13.07
2017-10-24T00:46:59.539Z,13.23
2017-10-24T00:49:26.960Z,12.13
2017-10-24T00:51:54.394Z,11.23
2017-10-24T00:54:21.822Z,12.77
2017-10-24T00:56:50.026Z,11.03
2017-10-24T00:59:17.455Z,9.80
2017-10-24T01:01:45.653Z,9.73
2017-10-24T01:04:13.081Z,9.50
2017-10-24T01:06:41.286Z,8.87
2017-10-24T01:09:08.708Z,9.50
2017-10-24T01:11:36.907Z,9.23
2017-10-24T01:14:04.339Z,9.13
2017-10-24T01:16:32.545Z,8.50
2017-10-24T01:18:59.972Z,8.60
2017-10-24T01:21:28.176Z,8.30
2017-10-24T01:23:55.596Z,8.47
2017-10-24T01:26:23.806Z,9.13
2017-10-24T01:28:51.232Z,9.00
2017-10-24T01:31:19.419Z,8.83
2017-10-24T01:33:46.844Z,9.70
2017-10-24T01:36:14.277Z,9.93
2017-10-24T01:38:41.714Z,8.83
2017-10-24T01:41:09.136Z,9.47
2017-10-24T01:43:37.330Z,8.80
2017-10-24T01:46:04.760Z,8.50
2017-10-24T01:48:32.956Z,11.23
2017-10-24T01:51:00.393Z,10.87
2017-10-24T01:53:28.600Z,9.90
2017-10-24T01:55:56.034Z,8.70
2017-10-24T01:58:24.289Z,9.97
2017-10-24T02:00:51.722Z,8.90
2017-10-24T02:03:20.225Z,10.17
2017-10-24T02:05:47.664Z,10.00
2017-10-24T02:08:15.102Z,9.90
2017-10-24T02:10:42.528Z,11.00
2017-10-24T02:13:09.960Z,9.73
2017-10-24T02:15:38.180Z,10.40
2017-10-24T02:18:05.607Z,10.83
2017-10-24T02:20:33.040Z,11.20
2017-10-24T02:23:00.488Z,11.23
2017-10-24T02:25:27.921Z,12.30
2017-10-24T02:27:55.361Z,11.30
2017-10-24T02:30:22.799Z,11.80
2017-10-24T02:32:50.242Z,11.50
2017-10-24T02:35:18.496Z,12.03
2017-10-24T02:37:45.964Z,11.40
2017-10-24T02:40:14.170Z,11.33
2017-10-24T02:42:41.601Z,11.70
2017-10-24T02:45:09.800Z,12.10
2017-10-24T02:47:37.254Z,13.00
2017-10-24T02:50:04.677Z,13.40
2017-10-24T02:52:32.118Z,12.27
2017-10-24T02:54:59.561Z,12.40
2017-10-24T02:57:27.002Z,14.60
2017-10-24T02:59:54.442Z,13.30
2017-10-24T03:02:21.877Z,13.20
2017-10-24T03:04:50.069Z,13.33
2017-10-24T03:07:17.514Z,13.70
2017-10-24T03:09:45.717Z,12.53
2017-10-24T03:12:13.157Z,14.77
2017-10-24T03:14:40.589Z,12.80
2017-10-24T03:17:08.801Z,15.47
2017-10-24T03:19:36.234Z,13.43
2017-10-24T03:22:04.437Z,13.70
2017-10-24T03:24:31.872Z,13.40
2017-10-24T03:26:59.313Z,13.80
2017-10-24T03:29:27.533Z,13.30
2017-10-24T03:31:54.990Z,14.37
2017-10-24T03:34:22.420Z,13.37
2017-10-24T03:36:49.864Z,12.93
2017-10-24T03:39:18.057Z,12.40
2017-10-24T03:41:45.492Z,13.20
2017-10-24T03:44:13.696Z,13.90
2017-10-24T03:46:41.146Z,15.60
2017-10-24T03:49:08.579Z,15.80
2017-10-24T03:51:36.795Z,15.10
2017-10-24T03:54:07.683Z,14.60
2017-10-24T03:56:35.890Z,15.27
2017-10-24T03:59:04.335Z,14.20
2017-10-24T04:01:32.540Z,17.80
2017-10-24T04:03:59.972Z,16.37
2017-10-24T04:06:28.194Z,18.20
2017-10-24T04:08:55.625Z,16.87
2017-10-24T04:11:23.053Z,16.80
2017-10-24T04:13:50.498Z,16.73
2017-10-24T04:16:17.937Z,15.97
2017-10-24T04:18:45.382Z,16.90
2017-10-24T04:21:12.811Z,17.80
2017-10-24T04:23:40.257Z,17.80
2017-10-24T04:26:08.469Z,18.70
2017-10-24T04:28:35.919Z,17.20
2017-10-24T04:31:03.357Z,17.90
2017-10-24T04:33:30.798Z,17.63
2017-10-24T04:35:58.993Z,19.23
2017-10-24T04:38:26.434Z,18.63
2017-10-24T04:40:54.640Z,20.23
2017-10-24T04:43:22.079Z,18.70
2017-10-24T04:45:49.512Z,20.00
2017-10-24T04:48:17.729Z,17.23
2017-10-24T04:50:45.164Z,18.83
2017-10-24T04:53:12.604Z,18.03
2017-10-24T04:55:40.818Z,17.37
2017-10-24T04:58:08.260Z,19.50
2017-10-24T05:00:35.677Z,19.00
2017-10-24T05:03:03.122Z,18.17
2017-10-24T05:05:30.556Z,18.90
2017-10-24T05:07:57.999Z,19.40
2017-10-24T05:10:27.252Z,19.83
2017-10-24T05:12:54.685Z,19.03
2017-10-24T05:15:22.117Z,18.40
2017-10-24T05:17:49.567Z,19.60
2017-10-24T05:20:17.010Z,21.53
2017-10-24T05:22:44.457Z,18.43
2017-10-24T05:25:11.885Z,19.23
2017-10-24T05:27:39.329Z,17.70
2017-10-24T05:30:06.760Z,19.50
2017-10-24T05:32:34.203Z,19.00
2017-10-24T05:35:01.629Z,19.93
2017-10-24T05:37:29.069Z,21.63
2017-10-24T05:39:56.505Z,17.87
2017-10-24T05:42:23.948Z,19.87
2017-10-24T05:44:51.386Z,18.00
2017-10-24T05:47:18.818Z,19.70
2017-10-24T05:49:47.089Z,18.07
2017-10-24T05:52:15.285Z,18.97
2017-10-24T05:54:42.727Z,18.93
2017-10-24T05:57:10.930Z,20.13
2017-10-24T05:59:38.364Z,19.10
2017-10-24T06:02:05.795Z,19.47
2017-10-24T06:04:33.242Z,18.47
2017-10-24T06:07:00.664Z,18.90
2017-10-24T06:09:28.108Z,19.63
2017-10-24T06:11:55.545Z,21.57
2017-10-24T06:14:22.980Z,18.67
2017-10-24T06:16:51.189Z,20.87
2017-10-24T06:19:18.638Z,18.43
2017-10-24T06:21:46.074Z,18.00
2017-10-24T06:24:13.522Z,19.97
2017-10-24T06:26:40.962Z,18.57
2017-10-24T06:29:08.396Z,19.37
2017-10-24T06:31:35.832Z,18.20
2017-10-24T06:34:03.276Z,20.23
2017-10-24T06:36:30.708Z,19.43
2017-10-24T06:38:58.940Z,18.37
2017-10-24T06:41:26.385Z,18.17
2017-10-24T06:43:53.812Z,18.20
2017-10-24T06:46:22.019Z,18.27
2017-10-24T06:48:49.460Z,20.33
2017-10-24T06:51:16.892Z,20.13
2017-10-24T06:53:45.089Z,18.53
2017-10-24T06:56:12.531Z,20.13
2017-10-24T06:58:40.740Z,17.57
2017-10-24T07:01:08.176Z,18.30
2017-10-24T07:03:35.609Z,16.80
2017-10-24T07:06:03.824Z,19.53
2017-10-24T07:08:31.253Z,17.53
2017-10-24T07:10:59.457Z,18.30
2017-10-24T07:13:26.890Z,16.77
2017-10-24T07:15:54.329Z,14.43
2017-10-24T07:18:22.528Z,13.43
2017-10-24T07:20:49.972Z,17.30
2017-10-24T07:23:18.178Z,15.33
2017-10-24T07:25:45.620Z,14.57
2017-10-24T07:28:13.053Z,15.17
2017-10-24T07:30:41.252Z,13.40
2017-10-24T07:33:08.703Z,13.00
2017-10-24T07:35:36.128Z,13.67
2017-10-24T07:38:03.568Z,14.03
2017-10-24T07:40:30.998Z,12.73
2017-10-24T07:42:58.451Z,12.40
2017-10-24T07:45:25.874Z,12.00
2017-10-24T07:47:54.081Z,10.47
2017-10-24T07:50:21.514Z,10.60
2017-10-24T07:52:48.943Z,10.53
2017-10-24T07:55:16.376Z,9.97
2017-10-24T07:57:43.820Z,10.00
2017-10-24T08:00:11.248Z,9.80
2017-10-24T08:02:38.676Z,9.50
2017-10-24T08:05:06.886Z,9.40
2017-10-24T08:07:34.304Z,8.23
2017-10-24T08:10:02.509Z,8.57
2017-10-24T08:12:29.947Z,8.70
2017-10-24T08:14:58.146Z,8.87
2017-10-24T08:17:25.580Z,7.77
2017-10-24T08:19:53.776Z,8.43
2017-10-24T08:22:21.214Z,9.17
2017-10-24T08:24:49.421Z,7.97
2017-10-24T08:27:16.860Z,9.30
2017-10-24T08:29:44.288Z,8.77
2017-10-24T08:32:12.510Z,8.73
2017-10-24T08:34:39.950Z,9.43
2017-10-24T08:37:07.372Z,8.73
2017-10-24T08:39:35.860Z,8.13
2017-10-24T08:42:04.062Z,9.10
2017-10-24T08:44:31.501Z,7.80
2017-10-24T08:46:59.710Z,8.57
2017-10-24T08:49:27.160Z,9.53
2017-10-24T08:51:54.592Z,8.70
2017-10-24T08:54:22.800Z,8.43
2017-10-24T08:56:50.225Z,7.97
2017-10-24T08:59:17.660Z,8.43
2017-10-24T09:01:45.090Z,7.53
2017-10-24T09:04:12.528Z,7.60
2017-10-24T09:06:39.963Z,9.30
2017-10-24T09:12:21.752Z,8.20
2017-10-24T09:14:49.954Z,8.60
2017-10-24T09:17:38.882Z,9.67
2017-10-24T09:20:08.112Z,9.23
2017-10-24T09:22:35.546Z,8.30
2017-10-24T09:25:07.610Z,9.73
2017-10-24T09:27:35.806Z,9.20
2017-10-24T09:30:03.241Z,8.00
2017-10-24T09:32:37.042Z,7.40
2017-10-24T09:35:05.244Z,8.60
2017-10-24T09:37:32.673Z,6.70
2017-10-24T09:40:00.884Z,7.20
2017-10-24T09:42:28.313Z,7.67
2017-10-24T09:44:56.523Z,6.40
2017-10-24T09:47:23.958Z,7.10
2017-10-24T09:49:57.195Z,6.17
2017-10-24T09:52:25.380Z,7.10
2017-10-24T09:54:52.829Z,7.20
2017-10-24T09:57:20.260Z,5.87
2017-10-24T09:59:47.705Z,6.00
2017-10-24T10:02:15.131Z,5.43
2017-10-24T10:04:43.338Z,5.47
2017-10-24T10:07:10.768Z,4.20
2017-10-24T10:09:38.964Z,5.63
2017-10-24T10:12:09.367Z,5.90
2017-10-24T10:14:36.792Z,4.23
2017-10-24T10:17:04.217Z,4.13
2017-10-24T10:19:31.661Z,4.40
2017-10-24T10:21:59.089Z,4.07
2017-10-24T10:24:43.081Z,4.83
2017-10-24T10:27:10.518Z,4.67
2017-10-24T10:29:37.936Z,5.63
2017-10-24T10:32:05.368Z,4.60
2017-10-24T10:34:32.824Z,5.00
2017-10-24T10:37:00.277Z,4.83
2017-10-24T10:39:27.711Z,4.50
2017-10-24T10:41:55.139Z,4.07
2017-10-24T10:44:23.351Z,4.73
2017-10-24T10:46:50.786Z,5.50
2017-10-24T10:49:18.217Z,4.60
2017-10-24T10:51:46.412Z,4.90
2017-10-24T10:54:13.840Z,5.13
2017-10-24T10:56:41.280Z,5.57
2017-10-24T10:59:08.704Z,5.23
2017-10-24T11:01:36.141Z,4.47
2017-10-24T11:04:03.570Z,5.97
2017-10-24T11:06:31.041Z,4.87
2017-10-24T11:08:58.450Z,4.40
2017-10-24T11:11:25.896Z,4.37
2017-10-24T11:13:53.303Z,3.30
2017-10-24T11:16:21.509Z,4.20
2017-10-24T11:18:48.941Z,4.30
2017-10-24T11:21:17.136Z,3.97
2017-10-24T11:23:44.553Z,3.90
2017-10-24T11:26:11.992Z,4.03
2017-10-24T11:28:39.420Z,3.70
2017-10-24T11:31:06.856Z,4.10
2017-10-24T11:33:34.281Z,4.13
2017-10-24T11:36:01.716Z,4.27
2017-10-24T11:38:29.152Z,3.63
2017-10-24T11:40:56.584Z,3.00
2017-10-24T11:43:24.004Z,3.17
2017-10-24T11:45:51.437Z,3.83
2017-10-24T11:48:18.871Z,3.50
2017-10-24T11:50:46.300Z,3.30
2017-10-24T11:53:14.506Z,3.37
2017-10-24T11:55:41.928Z,4.13
2017-10-24T11:58:10.137Z,3.00
2017-10-24T12:00:37.577Z,2.60
2017-10-24T12:03:05.013Z,3.60
2017-10-24T12:05:33.817Z,2.57
2017-10-24T12:08:01.258Z,3.07
2017-10-24T12:10:30.447Z,2.90
2017-10-24T12:12:57.879Z,2.30
2017-10-24T12:15:25.310Z,2.67
2017-10-24T12:17:52.740Z,2.70
2017-10-24T12:20:20.170Z,2.73
2017-10-24T12:22:47.600Z,2.80
2017-10-24T12:25:15.026Z,2.30
2017-10-24T12:27:42.465Z,2.17
2017-10-24T12:30:10.666Z,2.17
2017-10-24T12:32:38.102Z,2.07
2017-10-24T12:35:05.526Z,2.17
2017-10-24T12:37:32.965Z,2.50
2017-10-24T12:40:00.434Z,2.10
2017-10-24T12:42:30.305Z,2.60
2017-10-24T12:45:12.425Z,2.63
2017-10-24T12:47:39.859Z,2.80
2017-10-24T12:50:21.006Z,2.63
2017-10-24T12:52:49.212Z,3.30
2017-10-24T12:55:16.637Z,2.60
2017-10-24T12:57:44.839Z,2.60
2017-10-24T13:00:12.712Z,2.73
2017-10-24T13:02:40.155Z,2.77
2017-10-24T13:05:10.165Z,2.70
2017-10-24T13:07:37.608Z,2.77
2017-10-24T13:10:05.800Z,2.80
2017-10-24T13:12:33.261Z,2.70
2017-10-24T13:15:00.690Z,2.60
2017-10-24T13:17:28.886Z,2.40
2017-10-24T13:19:56.316Z,2.67
2017-10-24T13:22:24.508Z,2.50
2017-10-24T13:24:51.949Z,2.60
2017-10-24T13:27:19.382Z,2.60
2017-10-24T13:29:46.833Z,2.20
2017-10-24T13:32:14.252Z,4.83
2017-10-24T13:34:41.676Z,3.60
2017-10-24T13:37:09.877Z,3.53
2017-10-24T13:39:37.309Z,3.73
2017-10-24T13:42:05.504Z,3.53
2017-10-24T13:44:32.943Z,3.80
2017-10-24T13:47:01.155Z,3.70
2017-10-24T13:49:28.611Z,3.03
2017-10-24T13:51:56.040Z,3.90
2017-10-24T13:54:24.370Z,3.83
2017-10-24T13:56:51.791Z,3.23
2017-10-24T13:59:19.241Z,3.83
2017-10-24T14:01:46.689Z,4.00
2017-10-24T14:04:20.525Z,4.00
2017-10-24T14:06:53.714Z,3.60
2017-10-24T14:09:26.876Z,4.63
2017-10-24T14:11:54.316Z,4.50
2017-10-24T14:14:22.525Z,4.00
2017-10-24T14:16:49.969Z,4.53
2017-10-24T14:19:17.396Z,4.10
2017-10-24T14:21:44.869Z,4.83
2017-10-24T14:24:13.064Z,4.00
2017-10-24T14:26:40.522Z,5.00
2017-10-24T14:29:08.027Z,4.60
2017-10-24T14:31:35.463Z,5.23
2017-10-24T14:34:02.904Z,5.80
2017-10-24T14:36:30.328Z,6.00
2017-10-24T14:38:58.538Z,5.63
2017-10-24T14:41:25.966Z,6.13
2017-10-24T14:43:54.168Z,6.40
2017-10-24T14:46:21.601Z,5.47
2017-10-24T14:48:49.814Z,5.70
2017-10-24T14:51:17.245Z,5.90
2017-10-24T14:53:44.680Z,5.60
2017-10-24T14:56:12.877Z,6.13
2017-10-24T14:58:40.325Z,5.90
2017-10-24T15:01:07.829Z,6.30
2017-10-24T15:03:35.281Z,6.00
2017-10-24T15:06:02.794Z,5.83
2017-10-24T15:08:31.136Z,6.30
2017-10-24T15:10:58.555Z,6.70
2017-10-24T15:13:25.992Z,5.50
2017-10-24T15:15:53.447Z,7.10
2017-10-24T15:18:21.629Z,6.70
2017-10-24T15:20:49.064Z,6.40
2017-10-24T15:23:17.253Z,6.13
2017-10-24T15:25:44.866Z,6.40
2017-10-24T15:28:12.276Z,6.70
2017-10-24T15:30:39.721Z,5.90
2017-10-24T15:33:07.913Z,6.53
2017-10-24T15:35:36.400Z,6.57
2017-10-24T15:38:04.833Z,6.87
2017-10-24T15:40:32.266Z,7.17
2017-10-24T15:42:59.701Z,6.03
2017-10-24T15:45:27.129Z,6.67
2017-10-24T15:47:59.051Z,5.83
2017-10-24T15:50:26.473Z,6.73
2017-10-24T15:52:53.973Z,7.00
2017-10-24T15:55:21.407Z,7.10
2017-10-24T15:57:48.909Z,6.27
2017-10-24T16:00:17.105Z,6.07
2017-10-24T16:02:44.736Z,6.90
2017-10-24T16:05:12.941Z,5.63
2017-10-24T16:07:40.401Z,6.20
2017-10-24T16:10:07.823Z,6.43
2017-10-24T16:12:35.248Z,5.80
2017-10-24T16:15:02.688Z,5.43
2017-10-24T16:17:30.123Z,5.60
2017-10-24T16:19:57.566Z,5.60
2017-10-24T16:22:25.758Z,5.90
2017-10-24T16:24:53.194Z,4.80
2017-10-24T16:27:22.500Z,5.20
2017-10-24T16:29:50.754Z,5.57
2017-10-24T16:32:18.184Z,5.73
2017-10-24T16:34:45.620Z,6.27
2017-10-24T16:37:13.059Z,4.97
2017-10-24T16:39:40.600Z,5.63
2017-10-24T16:42:08.792Z,5.77
2017-10-24T16:44:36.326Z,7.17
2017-10-24T16:47:06.544Z,6.30
2017-10-24T16:49:36.210Z,6.80
2017-10-24T16:52:03.839Z,6.83
2017-10-24T16:54:31.416Z,6.60
2017-10-24T16:57:03.942Z,6.73
2017-10-24T16:59:32.533Z,7.27
2017-10-24T17:02:00.022Z,7.97
2017-10-24T17:04:31.237Z,7.93
2017-10-24T17:06:58.717Z,8.30
2017-10-24T17:09:27.165Z,8.87
2017-10-24T17:11:54.621Z,9.63
2017-10-24T17:14:22.060Z,8.80
2017-10-24T17:16:49.496Z,8.40
2017-10-24T17:19:16.924Z,8.00
2017-10-24T17:21:44.361Z,9.50
2017-10-24T17:24:12.565Z,9.70
2017-10-24T17:26:40.049Z,9.67
2017-10-24T17:29:08.256Z,9.23
2017-10-24T17:31:35.718Z,8.80
2017-10-24T17:34:03.160Z,9.60
2017-10-24T17:36:30.588Z,10.20
2017-10-24T17:38:58.039Z,8.37
2017-10-24T17:41:25.481Z,9.03
2017-10-24T17:43:52.917Z,8.40
2017-10-24T17:46:21.154Z,7.33
2017-10-24T17:48:48.585Z,7.70
2017-10-24T17:51:16.016Z,8.33
2017-10-24T17:53:43.646Z,8.43
2017-10-24T17:56:12.211Z,7.87
2017-10-24T17:58:39.642Z,7.03
2017-10-24T18:01:07.110Z,7.40
2017-10-24T18:03:34.556Z,7.57
2017-10-24T18:06:01.985Z,7.73
2017-10-24T18:08:30.222Z,7.30
2017-10-24T18:10:57.653Z,8.20
2017-10-24T18:13:25.084Z,8.07
2017-10-24T18:15:53.053Z,8.30
2017-10-24T18:18:20.481Z,8.17
2017-10-24T18:20:48.912Z,8.23
2017-10-24T18:23:16.351Z,8.67
2017-10-24T18:25:43.781Z,8.00
2017-10-24T18:28:11.225Z,8.50
2017-10-24T18:30:40.636Z,9.33
2017-10-24T18:33:08.825Z,7.30
2017-10-24T18:35:37.038Z,8.67
2017-10-24T18:38:04.468Z,8.70
2017-10-24T18:40:31.913Z,8.77
2017-10-24T18:43:00.117Z,8.40
2017-10-24T18:45:27.545Z,9.43
2017-10-24T18:47:55.765Z,9.37
2017-10-24T18:50:23.189Z,8.93
2017-10-24T18:52:50.620Z,8.83
2017-10-24T18:55:18.832Z,8.70
2017-10-24T18:57:46.270Z,8.37
2017-10-24T19:00:13.700Z,9.30
2017-10-24T19:02:45.873Z,9.00
2017-10-24T19:05:14.074Z,8.20
2017-10-24T19:07:41.507Z,7.00
2017-10-24T19:10:09.713Z,9.07
2017-10-24T19:12:37.154Z,9.17
2017-10-24T19:15:05.337Z,8.40
2017-10-24T19:17:32.786Z,10.33
2017-10-24T19:20:00.980Z,8.10
2017-10-24T19:22:28.400Z,8.60
2017-10-24T19:24:56.616Z,9.00
2017-10-24T19:27:24.052Z,9.87
2017-10-24T19:29:51.493Z,9.13
2017-10-24T19:32:19.688Z,9.30
2017-10-24T19:34:47.126Z,10.10
2017-10-24T19:37:15.312Z,9.03
2017-10-24T19:39:42.757Z,9.07
2017-10-24T19:42:10.968Z,8.13
2017-10-24T19:44:38.398Z,10.00
2017-10-24T19:47:05.844Z,9.63
2017-10-24T19:49:34.108Z,9.10
2017-10-24T19:52:01.573Z,9.67
2017-10-24T19:54:29.773Z,8.70
2017-10-24T19:56:59.672Z,9.87
2017-10-24T19:59:30.810Z,9.33
2017-10-24T20:01:59.025Z,9.20
2017-10-24T20:04:26.466Z,9.00
2017-10-24T20:06:53.901Z,9.93
2017-10-24T20:09:22.161Z,9.80
2017-10-24T20:11:49.600Z,7.80
2017-10-24T20:14:17.037Z,8.60
2017-10-24T20:16:44.482Z,9.23
2017-10-24T20:19:11.922Z,8.87
2017-10-24T20:21:39.358Z,8.80
2017-10-24T20:24:08.658Z,9.00
2017-10-24T20:26:36.865Z,9.20
2017-10-24T20:29:04.297Z,9.23
2017-10-24T20:31:31.748Z,9.83
2017-10-24T20:33:59.963Z,10.03
2017-10-24T20:36:28.406Z,9.40
2017-10-24T20:38:56.661Z,9.50
2017-10-24T20:41:24.093Z,9.57
2017-10-24T20:43:51.581Z,9.90
2017-10-24T20:46:20.893Z,9.80
2017-10-24T20:48:53.700Z,9.37
2017-10-24T20:51:21.150Z,9.50
2017-10-24T20:53:49.350Z,10.07
2017-10-24T20:56:16.781Z,9.93
2017-10-24T20:58:44.217Z,10.80
2017-10-24T21:01:12.412Z,9.80
2017-10-24T21:03:39.849Z,9.10
2017-10-24T21:06:08.044Z,9.77
2017-10-24T21:08:35.521Z,10.70
2017-10-24T21:11:03.030Z,8.43
2017-10-24T21:13:30.475Z,9.17
2017-10-24T21:15:57.909Z,11.17
2017-10-24T21:18:25.347Z,11.03
2017-10-24T21:20:52.785Z,10.47
2017-10-24T21:23:20.233Z,11.20
2017-10-24T21:25:48.435Z,10.90
2017-10-24T21:28:15.869Z,9.57
2017-10-24T21:30:43.312Z,11.63
2017-10-24T21:33:11.580Z,9.97
2017-10-24T21:35:39.787Z,10.77
2017-10-24T21:38:07.224Z,10.10
2017-10-24T21:40:35.428Z,9.90
2017-10-24T21:43:02.861Z,10.50
2017-10-24T21:45:31.063Z,10.03
2017-10-24T21:47:58.497Z,10.17
2017-10-24T21:50:25.937Z,10.07
2017-10-24T21:52:54.150Z,10.10
2017-10-24T21:55:21.580Z,10.43
2017-10-24T21:57:49.788Z,10.20
2017-10-24T22:00:32.089Z,10.50
2017-10-24T22:02:59.523Z,10.00
2017-10-24T22:05:26.974Z,9.20
2017-10-24T22:07:55.180Z,9.67
2017-10-24T22:10:22.616Z,10.90
2017-10-24T22:12:50.065Z,10.93
2017-10-24T22:15:17.499Z,9.97
2017-10-24T22:17:44.937Z,11.50
2017-10-24T22:20:12.413Z,10.10
2017-10-24T22:22:39.854Z,11.37
2017-10-24T22:25:07.293Z,10.37
2017-10-24T22:27:34.733Z,11.53
2017-10-24T22:30:02.156Z,10.10
2017-10-24T22:32:30.422Z,10.90
2017-10-24T22:34:57.832Z,9.90
2017-10-24T22:37:25.262Z,9.10
2017-10-24T22:39:52.693Z,9.63
2017-10-24T22:42:20.885Z,9.87
2017-10-24T22:44:48.325Z,9.07
2017-10-24T22:47:16.525Z,10.20
2017-10-24T22:49:43.974Z,12.17
2017-10-24T22:52:11.433Z,9.53
2017-10-24T22:54:39.620Z,9.67
2017-10-24T22:57:07.048Z,11.20
2017-10-24T22:59:34.499Z,10.93
2017-10-24T23:02:01.917Z,9.47
2017-10-24T23:04:29.356Z,10.37
2017-10-24T23:06:56.913Z,10.30
2017-10-24T23:09:24.325Z,10.20
2017-10-24T23:11:53.530Z,9.80
2017-10-24T23:14:21.738Z,10.93
2017-10-24T23:16:49.182Z,10.37
2017-10-24T23:19:17.374Z,10.53
2017-10-24T23:21:44.801Z,10.90
2017-10-24T23:24:13.004Z,10.93
2017-10-24T23:26:40.450Z,11.00
2017-10-24T23:29:07.894Z,10.87
2017-10-24T23:31:35.326Z,10.80
2017-10-24T23:34:02.792Z,12.20
2017-10-24T23:36:30.234Z,11.27
2017-10-24T23:38:57.672Z,11.17
2017-10-24T23:41:25.100Z,11.57
2017-10-24T23:43:52.541Z,10.20
2017-10-24T23:46:19.990Z,9.57
2017-10-24T23:48:47.421Z,12.37
2017-10-24T23:51:14.849Z,9.90
2017-10-24T23:53:42.298Z,10.90
2017-10-24T23:56:09.723Z,12.27
2017-10-24T23:58:37.169Z,11.10
